createdAt,value
2022-10-07T00:00:11.234Z,6.94
2022-10-07T00:01:11.319Z,6.78
2022-10-07T00:02:11.256Z,7.11
2022-10-07T00:03:11.235Z,7.22
2022-10-07T00:04:11.239Z,7.11
2022-10-07T00:05:11.230Z,7.11
2022-10-07T00:06:11.251Z,6.67
2022-10-07T00:07:11.227Z,6.67
2022-10-07T00:08:11.252Z,6.67
2022-10-07T00:09:11.237Z,6.22
2022-10-07T00:10:11.230Z,6.5
2022-10-07T00:11:11.235Z,6.67
2022-10-07T00:12:11.234Z,6.67
2022-10-07T00:13:11.231Z,6.67
2022-10-07T00:14:11.235Z,6.94
2022-10-07T00:15:11.233Z,7.11
2022-10-07T00:16:11.303Z,6.78
2022-10-07T00:17:11.236Z,6.78
2022-10-07T00:18:11.236Z,6.78
2022-10-07T00:19:11.229Z,6.78
2022-10-07T00:20:11.240Z,6.67
2022-10-07T00:21:11.238Z,6.67
2022-10-07T00:22:11.254Z,6.39
2022-10-07T00:23:11.237Z,6.22
2022-10-07T00:24:11.248Z,6.22
2022-10-07T00:25:11.228Z,6.22
2022-10-07T00:26:11.231Z,6.06
2022-10-07T00:27:11.239Z,6.22
2022-10-07T00:28:11.272Z,6.06
2022-10-07T00:29:11.233Z,6.06
2022-10-07T00:30:11.236Z,6.22
2022-10-07T00:31:11.294Z,5.94
2022-10-07T00:32:11.226Z,6.06
2022-10-07T00:33:11.237Z,6.22
2022-10-07T00:34:11.234Z,6.06
2022-10-07T00:35:11.239Z,6.06
2022-10-07T00:36:11.235Z,5.78
2022-10-07T00:37:11.259Z,5.94
2022-10-07T00:38:11.262Z,6.22
2022-10-07T00:39:11.237Z,6.22
2022-10-07T00:40:11.253Z,6.22
2022-10-07T00:41:11.245Z,6.39
2022-10-07T00:42:11.306Z,6.39
2022-10-07T00:43:11.248Z,6.39
2022-10-07T00:44:11.242Z,6.67
2022-10-07T00:45:11.238Z,6.22
2022-10-07T00:46:11.325Z,6.39
2022-10-07T00:47:11.252Z,6.67
2022-10-07T00:48:11.246Z,6.67
2022-10-07T00:49:11.250Z,6.67
2022-10-07T00:50:11.247Z,6.94
2022-10-07T00:51:11.242Z,6.78
2022-10-07T00:52:11.252Z,6.78
2022-10-07T00:53:11.257Z,6.67
2022-10-07T00:54:11.270Z,6.5
2022-10-07T00:55:11.259Z,6.5
2022-10-07T00:56:11.254Z,6.22
2022-10-07T00:57:11.252Z,6.06
2022-10-07T00:58:11.255Z,6.22
2022-10-07T00:59:11.250Z,5.78
2022-10-07T01:00:11.256Z,6.06
2022-10-07T01:01:11.338Z,5.56
2022-10-07T01:02:11.307Z,6.22
2022-10-07T01:03:11.258Z,6.22
2022-10-07T01:04:11.255Z,6.06
2022-10-07T01:05:11.254Z,6.22
2022-10-07T01:06:11.253Z,6.22
2022-10-07T01:07:11.252Z,6.06
2022-10-07T01:08:11.262Z,6.5
2022-10-07T01:09:11.261Z,6.39
2022-10-07T01:10:11.283Z,6.67
2022-10-07T01:11:11.260Z,6.22
2022-10-07T01:12:11.262Z,6.39
2022-10-07T01:13:11.259Z,6.67
2022-10-07T01:14:11.269Z,6.39
2022-10-07T01:15:11.270Z,6.06
2022-10-07T01:16:11.268Z,6.5
2022-10-07T01:17:11.420Z,6.39
2022-10-07T01:18:11.265Z,6.22
2022-10-07T01:19:11.275Z,6.22
2022-10-07T01:20:11.267Z,6.22
2022-10-07T01:21:11.262Z,6.06
2022-10-07T01:22:11.282Z,6.06
2022-10-07T01:23:11.273Z,6.06
2022-10-07T01:24:11.275Z,5.94
2022-10-07T01:25:11.279Z,6.06
2022-10-07T01:26:11.308Z,5.94
2022-10-07T01:27:11.274Z,5.78
2022-10-07T01:28:11.303Z,5.78
2022-10-07T01:29:11.275Z,6.22
2022-10-07T01:30:11.275Z,6.39
2022-10-07T01:31:11.352Z,6.67
2022-10-07T01:32:11.280Z,6.5
2022-10-07T01:33:11.288Z,6.39
2022-10-07T01:34:11.285Z,6.5
2022-10-07T01:35:11.274Z,6.22
2022-10-07T01:36:11.272Z,5.94
2022-10-07T01:37:11.281Z,6.06
2022-10-07T01:38:11.281Z,6.06
2022-10-07T01:39:11.288Z,5.94
2022-10-07T01:40:11.287Z,5.94
2022-10-07T01:41:11.293Z,6.06
2022-10-07T01:42:11.315Z,6.06
2022-10-07T01:43:11.289Z,5.78
2022-10-07T01:44:11.281Z,5.94
2022-10-07T01:45:11.283Z,5.78
2022-10-07T01:46:11.346Z,5.78
2022-10-07T01:47:11.303Z,5.78
2022-10-07T01:48:11.302Z,6.22
2022-10-07T01:49:11.292Z,6.22
2022-10-07T01:50:11.298Z,6.22
2022-10-07T01:51:11.294Z,5.94
2022-10-07T01:52:11.291Z,5.94
2022-10-07T01:53:11.298Z,5.94
2022-10-07T01:54:11.294Z,6.22
2022-10-07T01:55:11.295Z,6.22
2022-10-07T01:56:12.931Z,6.22
2022-10-07T01:57:11.304Z,6.22
2022-10-07T01:58:11.324Z,6.39
2022-10-07T01:59:11.295Z,6.22
2022-10-07T02:00:11.302Z,6.22
2022-10-07T02:01:11.358Z,6.22
2022-10-07T02:02:11.301Z,6.06
2022-10-07T02:03:11.299Z,6.39
2022-10-07T02:04:11.300Z,6.22
2022-10-07T02:05:11.301Z,6.22
2022-10-07T02:06:11.311Z,6.22
2022-10-07T02:07:11.301Z,6.22
2022-10-07T02:08:11.304Z,6.22
2022-10-07T02:09:11.302Z,6.22
2022-10-07T02:10:11.305Z,6.22
2022-10-07T02:11:11.306Z,6.22
2022-10-07T02:12:11.308Z,6.22
2022-10-07T02:13:11.313Z,6.39
2022-10-07T02:14:11.348Z,6.67
2022-10-07T02:15:11.307Z,6.5
2022-10-07T02:16:11.344Z,6.39
2022-10-07T02:17:11.313Z,6.39
2022-10-07T02:18:11.307Z,6.5
2022-10-07T02:19:11.309Z,6.67
2022-10-07T02:20:11.310Z,6.5
2022-10-07T02:21:11.316Z,6.5
2022-10-07T02:22:11.319Z,6.67
2022-10-07T02:23:11.312Z,6.67
2022-10-07T02:24:11.317Z,6.5
2022-10-07T02:25:11.318Z,6.39
2022-10-07T02:26:11.314Z,6.67
2022-10-07T02:27:11.326Z,6.5
2022-10-07T02:28:11.383Z,6.5
2022-10-07T02:29:11.320Z,6.67
2022-10-07T02:30:11.360Z,6.67
2022-10-07T02:31:11.388Z,6.67
2022-10-07T02:32:11.324Z,6.94
2022-10-07T02:33:11.334Z,6.94
2022-10-07T02:34:13.292Z,6.94
2022-10-07T02:35:11.324Z,6.94
2022-10-07T02:36:11.327Z,6.78
2022-10-07T02:37:11.323Z,6.94
2022-10-07T02:38:11.327Z,6.94
2022-10-07T02:39:11.329Z,7.11
2022-10-07T02:40:12.584Z,7.22
2022-10-07T02:41:11.338Z,6.94
2022-10-07T02:42:11.319Z,6.94
2022-10-07T02:43:11.329Z,7.11
2022-10-07T02:44:11.332Z,6.94
2022-10-07T02:45:11.325Z,6.94
2022-10-07T02:46:11.464Z,7.11
2022-10-07T02:47:11.328Z,6.94
2022-10-07T02:48:11.338Z,7.11
2022-10-07T02:49:11.326Z,7.11
2022-10-07T02:50:11.338Z,6.67
2022-10-07T02:51:11.331Z,6.94
2022-10-07T02:52:11.331Z,6.67
2022-10-07T02:53:11.340Z,6.39
2022-10-07T02:54:11.336Z,6.67
2022-10-07T02:55:11.340Z,6.67
2022-10-07T02:56:11.333Z,6.67
2022-10-07T02:57:11.327Z,6.67
2022-10-07T02:58:11.340Z,6.67
2022-10-07T02:59:11.339Z,6.67
2022-10-07T03:00:11.599Z,6.78
2022-10-07T03:01:11.345Z,6.94
2022-10-07T03:02:11.365Z,6.5
2022-10-07T03:03:11.371Z,6.67
2022-10-07T03:04:11.328Z,6.78
2022-10-07T03:05:11.336Z,6.67
2022-10-07T03:06:11.331Z,6.94
2022-10-07T03:07:11.329Z,6.67
2022-10-07T03:08:11.344Z,6.39
2022-10-07T03:09:11.337Z,6.78
2022-10-07T03:10:11.335Z,6.78
2022-10-07T03:11:11.344Z,6.67
2022-10-07T03:12:11.335Z,6.78
2022-10-07T03:13:11.328Z,6.67
2022-10-07T03:14:11.339Z,6.78
2022-10-07T03:15:11.337Z,6.67
2022-10-07T03:16:11.399Z,6.67
2022-10-07T03:17:11.338Z,6.94
2022-10-07T03:18:11.365Z,7.11
2022-10-07T03:19:11.343Z,6.67
2022-10-07T03:20:11.346Z,6.67
2022-10-07T03:21:11.336Z,6.67
2022-10-07T03:22:11.358Z,6.94
2022-10-07T03:23:11.340Z,6.67
2022-10-07T03:24:11.346Z,6.78
2022-10-07T03:25:11.342Z,6.94
2022-10-07T03:26:11.340Z,6.67
2022-10-07T03:27:11.344Z,6.78
2022-10-07T03:28:11.404Z,7.11
2022-10-07T03:29:11.344Z,6.94
2022-10-07T03:30:11.345Z,6.94
2022-10-07T03:31:11.384Z,6.78
2022-10-07T03:32:11.346Z,7.11
2022-10-07T03:33:11.338Z,6.94
2022-10-07T03:34:11.368Z,7.11
2022-10-07T03:35:11.346Z,7.11
2022-10-07T03:36:11.341Z,7.11
2022-10-07T03:37:11.352Z,6.94
2022-10-07T03:38:11.354Z,7.11
2022-10-07T03:39:11.345Z,7.11
2022-10-07T03:40:11.352Z,7.11
2022-10-07T03:41:11.348Z,7.11
2022-10-07T03:42:11.349Z,6.94
2022-10-07T03:43:11.357Z,7.11
2022-10-07T03:44:11.337Z,6.78
2022-10-07T03:45:11.347Z,7.11
2022-10-07T03:46:11.370Z,6.94
2022-10-07T03:47:11.778Z,6.94
2022-10-07T03:48:11.343Z,6.94
2022-10-07T03:49:11.342Z,6.94
2022-10-07T03:50:11.381Z,6.94
2022-10-07T03:51:11.345Z,7.11
2022-10-07T03:52:11.346Z,6.94
2022-10-07T03:53:11.342Z,6.78
2022-10-07T03:54:11.349Z,7.11
2022-10-07T03:55:11.348Z,6.78
2022-10-07T03:56:11.347Z,7.11
2022-10-07T03:57:11.346Z,7.11
2022-10-07T03:58:11.349Z,6.94
2022-10-07T03:59:11.358Z,6.5
2022-10-07T04:00:11.351Z,6.94
2022-10-07T04:01:11.348Z,6.67
2022-10-07T04:02:11.392Z,6.94
2022-10-07T04:03:11.409Z,6.94
2022-10-07T04:04:11.343Z,6.67
2022-10-07T04:05:11.352Z,6.78
2022-10-07T04:06:11.380Z,6.94
2022-10-07T04:07:11.346Z,6.94
2022-10-07T04:08:11.348Z,6.67
2022-10-07T04:09:11.339Z,6.78
2022-10-07T04:10:11.359Z,6.67
2022-10-07T04:11:11.351Z,6.78
2022-10-07T04:12:11.348Z,6.78
2022-10-07T04:13:11.353Z,6.78
2022-10-07T04:14:11.345Z,6.67
2022-10-07T04:15:11.344Z,6.67
2022-10-07T04:16:11.412Z,6.78
2022-10-07T04:17:11.357Z,6.67
2022-10-07T04:18:11.345Z,6.78
2022-10-07T04:19:11.353Z,6.67
2022-10-07T04:20:11.353Z,6.67
2022-10-07T04:21:11.353Z,6.94
2022-10-07T04:22:11.401Z,6.67
2022-10-07T04:23:11.343Z,6.67
2022-10-07T04:24:11.350Z,6.67
2022-10-07T04:25:11.350Z,6.67
2022-10-07T04:26:11.354Z,6.67
2022-10-07T04:27:19.545Z,6.06
2022-10-07T04:28:11.392Z,6.78
2022-10-07T04:29:11.350Z,6.39
2022-10-07T04:30:11.350Z,6.67
2022-10-07T04:31:11.409Z,6.5
2022-10-07T04:32:11.352Z,6.67
2022-10-07T04:33:11.351Z,6.78
2022-10-07T04:34:11.353Z,6.5
2022-10-07T04:35:11.342Z,6.78
2022-10-07T04:36:11.345Z,6.67
2022-10-07T04:37:11.352Z,6.78
2022-10-07T04:38:11.421Z,6.67
2022-10-07T04:39:11.348Z,6.94
2022-10-07T04:40:11.357Z,6.5
2022-10-07T04:41:11.356Z,6.78
2022-10-07T04:42:11.350Z,6.39
2022-10-07T04:43:11.352Z,6.5
2022-10-07T04:44:11.356Z,6.78
2022-10-07T04:45:11.357Z,6.39
2022-10-07T04:46:11.354Z,6.78
2022-10-07T04:47:11.431Z,6.94
2022-10-07T04:48:11.347Z,6.78
2022-10-07T04:49:11.353Z,6.78
2022-10-07T04:50:11.356Z,6.78
2022-10-07T04:51:11.356Z,6.67
2022-10-07T04:52:11.347Z,6.78
2022-10-07T04:53:11.353Z,6.94
2022-10-07T04:54:11.367Z,6.94
2022-10-07T04:55:11.348Z,6.5
2022-10-07T04:56:11.365Z,6.78
2022-10-07T04:57:11.349Z,7.11
2022-10-07T04:58:11.364Z,6.94
2022-10-07T04:59:11.348Z,6.94
2022-10-07T05:00:11.356Z,6.67
2022-10-07T05:01:11.462Z,6.94
2022-10-07T05:02:11.425Z,6.94
2022-10-07T05:03:11.352Z,6.94
2022-10-07T05:04:11.351Z,6.78
2022-10-07T05:05:11.354Z,6.78
2022-10-07T05:06:11.355Z,6.94
2022-10-07T05:07:11.351Z,7.11
2022-10-07T05:08:11.353Z,6.94
2022-10-07T05:09:11.352Z,6.78
2022-10-07T05:10:11.383Z,7.11
2022-10-07T05:11:11.350Z,6.67
2022-10-07T05:12:11.360Z,6.78
2022-10-07T05:13:11.357Z,6.67
2022-10-07T05:14:11.362Z,6.67
2022-10-07T05:15:11.359Z,6.94
2022-10-07T05:16:11.403Z,6.67
2022-10-07T05:17:11.363Z,6.67
2022-10-07T05:18:11.356Z,7.11
2022-10-07T05:19:11.355Z,6.78
2022-10-07T05:20:11.356Z,7.11
2022-10-07T05:21:11.358Z,6.94
2022-10-07T05:22:11.365Z,6.94
2022-10-07T05:23:11.357Z,7.11
2022-10-07T05:24:11.360Z,6.39
2022-10-07T05:25:11.352Z,6.94
2022-10-07T05:26:11.383Z,6.78
2022-10-07T05:27:11.351Z,6.78
2022-10-07T05:28:11.361Z,6.67
2022-10-07T05:29:11.352Z,6.78
2022-10-07T05:30:11.371Z,6.94
2022-10-07T05:31:11.405Z,6.94
2022-10-07T05:32:11.374Z,7.11
2022-10-07T05:33:11.352Z,6.78
2022-10-07T05:34:11.355Z,6.67
2022-10-07T05:35:11.359Z,6.78
2022-10-07T05:36:11.355Z,6.78
2022-10-07T05:37:11.361Z,6.78
2022-10-07T05:38:11.356Z,6.78
2022-10-07T05:39:11.359Z,6.78
2022-10-07T05:40:11.361Z,6.78
2022-10-07T05:41:11.360Z,6.67
2022-10-07T05:42:11.463Z,6.67
2022-10-07T05:43:11.372Z,6.78
2022-10-07T05:44:11.365Z,6.78
2022-10-07T05:45:11.356Z,6.78
2022-10-07T05:46:11.414Z,6.94
2022-10-07T05:47:11.362Z,7.11
2022-10-07T05:48:11.362Z,6.78
2022-10-07T05:49:11.356Z,6.94
2022-10-07T05:50:11.360Z,7.11
2022-10-07T05:51:11.355Z,6.94
2022-10-07T05:52:11.365Z,6.94
2022-10-07T05:53:11.362Z,7.11
2022-10-07T05:54:11.361Z,6.94
2022-10-07T05:55:11.351Z,7.11
2022-10-07T05:56:11.360Z,6.78
2022-10-07T05:57:11.368Z,6.94
2022-10-07T05:58:11.384Z,7.11
2022-10-07T05:59:11.373Z,6.78
2022-10-07T06:00:11.368Z,7.11
2022-10-07T06:01:13.998Z,6.5
2022-10-07T06:02:11.427Z,6.94
2022-10-07T06:03:11.476Z,6.78
2022-10-07T06:04:11.377Z,6.94
2022-10-07T06:05:11.368Z,6.78
2022-10-07T06:06:11.373Z,6.94
2022-10-07T06:07:11.383Z,7.11
2022-10-07T06:08:11.371Z,6.94
2022-10-07T06:09:11.371Z,6.94
2022-10-07T06:10:11.369Z,6.94
2022-10-07T06:11:11.378Z,6.78
2022-10-07T06:12:11.383Z,6.94
2022-10-07T06:13:11.384Z,6.78
2022-10-07T06:14:11.404Z,6.94
2022-10-07T06:15:11.381Z,7.11
2022-10-07T06:16:11.407Z,7.11
2022-10-07T06:17:11.390Z,7.11
2022-10-07T06:18:11.388Z,6.94
2022-10-07T06:19:11.386Z,6.67
2022-10-07T06:20:11.388Z,6.78
2022-10-07T06:21:11.390Z,7.11
2022-10-07T06:22:11.397Z,6.78
2022-10-07T06:23:11.392Z,6.94
2022-10-07T06:24:11.393Z,6.94
2022-10-07T06:25:11.390Z,7.11
2022-10-07T06:26:11.397Z,7.11
2022-10-07T06:27:11.391Z,7.39
2022-10-07T06:28:11.431Z,7.39
2022-10-07T06:29:11.401Z,7.39
2022-10-07T06:30:11.467Z,7.11
2022-10-07T06:31:11.482Z,7.11
2022-10-07T06:32:11.405Z,7.11
2022-10-07T06:33:11.408Z,7.11
2022-10-07T06:34:11.410Z,7.22
2022-10-07T06:35:11.407Z,6.94
2022-10-07T06:36:11.411Z,7.39
2022-10-07T06:37:11.408Z,7.22
2022-10-07T06:38:11.410Z,7.39
2022-10-07T06:39:11.426Z,7.5
2022-10-07T06:40:11.411Z,7.5
2022-10-07T06:41:11.410Z,7.5
2022-10-07T06:42:11.411Z,7.5
2022-10-07T06:43:11.418Z,7.5
2022-10-07T06:44:11.423Z,7.22
2022-10-07T06:45:11.416Z,7.39
2022-10-07T06:46:11.536Z,7.5
2022-10-07T06:47:12.125Z,7.67
2022-10-07T06:48:11.429Z,7.22
2022-10-07T06:49:11.430Z,7.39
2022-10-07T06:50:11.435Z,7.5
2022-10-07T06:51:11.435Z,7.5
2022-10-07T06:52:11.428Z,7.22
2022-10-07T06:53:11.427Z,7.67
2022-10-07T06:54:11.437Z,7.67
2022-10-07T06:55:11.442Z,7.94
2022-10-07T06:56:11.437Z,7.67
2022-10-07T06:57:33.431Z,7.78
2022-10-07T06:58:12.090Z,7.78
2022-10-07T06:59:11.436Z,7.94
2022-10-07T07:00:11.442Z,7.67
2022-10-07T07:01:11.501Z,7.78
2022-10-07T07:02:11.539Z,7.94
2022-10-07T07:03:11.452Z,7.67
2022-10-07T07:04:11.452Z,7.67
2022-10-07T07:05:11.443Z,7.67
2022-10-07T07:06:11.457Z,7.94
2022-10-07T07:07:11.456Z,7.94
2022-10-07T07:08:11.460Z,7.94
2022-10-07T07:09:11.460Z,7.67
2022-10-07T07:10:11.458Z,7.94
2022-10-07T07:11:11.453Z,8.11
2022-10-07T07:12:11.459Z,7.78
2022-10-07T07:13:11.455Z,7.78
2022-10-07T07:14:11.488Z,7.78
2022-10-07T07:15:11.457Z,7.94
2022-10-07T07:16:11.467Z,7.94
2022-10-07T07:17:11.514Z,7.94
2022-10-07T07:18:11.492Z,7.78
2022-10-07T07:19:11.466Z,7.5
2022-10-07T07:20:11.470Z,7.94
2022-10-07T07:21:11.467Z,7.78
2022-10-07T07:22:11.475Z,7.94
2022-10-07T07:23:11.463Z,8.11
2022-10-07T07:24:11.465Z,7.94
2022-10-07T07:25:11.464Z,7.94
2022-10-07T07:26:11.483Z,7.94
2022-10-07T07:27:11.475Z,8.11
2022-10-07T07:28:11.556Z,8.11
2022-10-07T07:29:11.479Z,8.11
2022-10-07T07:30:11.482Z,8.28
2022-10-07T07:31:11.564Z,7.94
2022-10-07T07:32:11.491Z,8.39
2022-10-07T07:33:11.479Z,7.94
2022-10-07T07:34:11.528Z,7.22
2022-10-07T07:35:11.491Z,7.94
2022-10-07T07:36:11.494Z,7.67
2022-10-07T07:37:11.489Z,7.94
2022-10-07T07:38:11.494Z,7.94
2022-10-07T07:39:11.494Z,7.94
2022-10-07T07:40:11.492Z,8.11
2022-10-07T07:41:11.500Z,8.39
2022-10-07T07:42:11.501Z,8.28
2022-10-07T07:43:11.498Z,8.39
2022-10-07T07:44:11.492Z,8.5
2022-10-07T07:45:11.491Z,8.61
2022-10-07T07:46:11.574Z,8.61
2022-10-07T07:47:11.498Z,8.39
2022-10-07T07:48:11.501Z,8.5
2022-10-07T07:49:11.505Z,8.61
2022-10-07T07:50:11.531Z,8.61
2022-10-07T07:51:11.505Z,8.94
2022-10-07T07:52:11.507Z,9.06
2022-10-07T07:53:11.505Z,9.06
2022-10-07T07:54:11.511Z,8.78
2022-10-07T07:55:11.513Z,9.22
2022-10-07T07:56:11.510Z,8.94
2022-10-07T07:57:11.510Z,8.94
2022-10-07T07:58:12.041Z,9.22
2022-10-07T07:59:11.516Z,9.22
2022-10-07T08:00:11.513Z,9.39
2022-10-07T08:01:11.536Z,9.22
2022-10-07T08:02:11.539Z,9.22
2022-10-07T08:03:11.524Z,8.94
2022-10-07T08:04:11.513Z,9.06
2022-10-07T08:05:11.511Z,9.22
2022-10-07T08:06:11.546Z,9.06
2022-10-07T08:07:11.531Z,8.94
2022-10-07T08:08:11.525Z,8.94
2022-10-07T08:09:11.528Z,8.78
2022-10-07T08:10:11.534Z,8.78
2022-10-07T08:11:11.528Z,9.22
2022-10-07T08:12:11.544Z,8.78
2022-10-07T08:13:11.526Z,8.78
2022-10-07T08:14:11.546Z,8.78
2022-10-07T08:15:11.538Z,9.22
2022-10-07T08:16:11.582Z,8.94
2022-10-07T08:17:11.546Z,9.5
2022-10-07T08:18:11.541Z,9.5
2022-10-07T08:19:11.539Z,8.94
2022-10-07T08:20:11.546Z,9.22
2022-10-07T08:21:11.541Z,9.22
2022-10-07T08:22:11.563Z,9.67
2022-10-07T08:23:11.548Z,9.78
2022-10-07T08:24:11.561Z,9.78
2022-10-07T08:25:11.551Z,9.94
2022-10-07T08:26:11.560Z,9.94
2022-10-07T08:27:11.570Z,9.39
2022-10-07T08:28:11.586Z,9.94
2022-10-07T08:29:11.556Z,10.11
2022-10-07T08:30:11.600Z,9.94
2022-10-07T08:31:11.653Z,10.22
2022-10-07T08:32:11.570Z,10.11
2022-10-07T08:33:11.557Z,9.78
2022-10-07T08:34:11.554Z,10.11
2022-10-07T08:35:11.556Z,9.67
2022-10-07T08:36:11.561Z,10.11
2022-10-07T08:37:11.553Z,10.39
2022-10-07T08:38:14.464Z,10.22
2022-10-07T08:39:11.561Z,10.39
2022-10-07T08:40:11.671Z,10.56
2022-10-07T08:41:11.567Z,10.39
2022-10-07T08:42:11.568Z,10.56
2022-10-07T08:43:11.563Z,10.39
2022-10-07T08:44:15.815Z,11
2022-10-07T08:45:11.571Z,10.56
2022-10-07T08:46:11.579Z,10.39
2022-10-07T08:47:11.563Z,10.22
2022-10-07T08:48:11.574Z,10.11
2022-10-07T08:49:11.565Z,10.11
2022-10-07T08:50:15.276Z,10.11
2022-10-07T08:51:11.576Z,10.83
2022-10-07T08:52:11.580Z,10.83
2022-10-07T08:53:11.579Z,11.61
2022-10-07T08:54:11.598Z,10.56
2022-10-07T08:55:11.581Z,9.94
2022-10-07T08:56:11.575Z,9.67
2022-10-07T08:57:11.589Z,9.67
2022-10-07T08:58:11.583Z,10.11
2022-10-07T08:59:11.587Z,9.94
2022-10-07T09:00:11.591Z,10.11
2022-10-07T09:01:11.623Z,9.78
2022-10-07T09:02:11.585Z,9.94
2022-10-07T09:03:11.591Z,10.11
2022-10-07T09:04:11.589Z,10.22
2022-10-07T09:05:11.592Z,10.22
2022-10-07T09:06:11.588Z,10.22
2022-10-07T09:07:11.582Z,10.22
2022-10-07T09:08:11.587Z,10.11
2022-10-07T09:09:11.605Z,10.11
2022-10-07T09:10:11.617Z,10.11
2022-10-07T09:11:11.590Z,10.39
2022-10-07T09:12:11.599Z,10.83
2022-10-07T09:13:11.603Z,11.28
2022-10-07T09:14:11.598Z,11.44
2022-10-07T09:15:11.602Z,11.44
2022-10-07T09:16:11.641Z,11.61
2022-10-07T09:17:11.593Z,11.28
2022-10-07T09:18:11.612Z,11.83
2022-10-07T09:19:11.604Z,11.44
2022-10-07T09:20:11.598Z,11.11
2022-10-07T09:21:11.614Z,10.39
2022-10-07T09:22:11.614Z,10.56
2022-10-07T09:23:11.597Z,10.39
2022-10-07T09:24:11.613Z,10.56
2022-10-07T09:25:11.695Z,10.67
2022-10-07T09:26:11.636Z,10.56
2022-10-07T09:27:11.612Z,10.83
2022-10-07T09:28:11.658Z,10.56
2022-10-07T09:29:11.614Z,10.83
2022-10-07T09:30:11.614Z,10.83
2022-10-07T09:31:11.695Z,11.44
2022-10-07T09:32:11.616Z,11
2022-10-07T09:33:11.615Z,11.61
2022-10-07T09:34:11.611Z,12.11
2022-10-07T09:35:11.616Z,12.11
2022-10-07T09:36:11.618Z,11.61
2022-10-07T09:37:11.622Z,11.61
2022-10-07T09:38:11.614Z,11.44
2022-10-07T09:39:11.616Z,11.72
2022-10-07T09:40:11.617Z,11.28
2022-10-07T09:41:11.626Z,11.61
2022-10-07T09:42:11.638Z,11.83
2022-10-07T09:43:11.621Z,12.28
2022-10-07T09:44:11.625Z,11.94
2022-10-07T09:45:11.618Z,11.72
2022-10-07T09:46:11.660Z,11.94
2022-10-07T09:47:11.618Z,12.11
2022-10-07T09:48:11.627Z,12.28
2022-10-07T09:49:11.624Z,12.28
2022-10-07T09:50:11.619Z,12.11
2022-10-07T09:51:11.617Z,11.72
2022-10-07T09:52:11.627Z,11.83
2022-10-07T09:53:11.622Z,12.44
2022-10-07T09:54:11.622Z,12.72
2022-10-07T09:55:11.617Z,12.56
2022-10-07T09:56:11.628Z,12.89
2022-10-07T09:57:14.554Z,12.72
2022-10-07T09:58:11.646Z,12.28
2022-10-07T09:59:11.624Z,12.28
2022-10-07T10:00:11.618Z,12.67
2022-10-07T10:01:11.634Z,12.5
2022-10-07T10:02:11.674Z,12.78
2022-10-07T10:03:11.657Z,12.78
2022-10-07T10:04:11.630Z,12.94
2022-10-07T10:05:11.615Z,13.22
2022-10-07T10:06:11.626Z,13.28
2022-10-07T10:07:11.626Z,13.67
2022-10-07T10:08:11.618Z,14.56
2022-10-07T10:09:11.629Z,14.67
2022-10-07T10:10:11.633Z,14.94
2022-10-07T10:11:11.627Z,15
2022-10-07T10:12:11.671Z,15.22
2022-10-07T10:13:11.624Z,15
2022-10-07T10:14:11.641Z,15
2022-10-07T10:15:11.625Z,15
2022-10-07T10:16:11.695Z,14.61
2022-10-07T10:17:11.636Z,13.83
2022-10-07T10:18:11.638Z,14.11
2022-10-07T10:19:11.633Z,14.78
2022-10-07T10:20:11.630Z,15.17
2022-10-07T10:21:11.630Z,15.17
2022-10-07T10:22:11.629Z,14.44
2022-10-07T10:23:11.637Z,14
2022-10-07T10:24:11.639Z,13.83
2022-10-07T10:25:11.637Z,14.44
2022-10-07T10:26:11.630Z,15.17
2022-10-07T10:27:11.640Z,15.17
2022-10-07T10:28:11.699Z,15.06
2022-10-07T10:29:11.642Z,14.61
2022-10-07T10:30:11.676Z,14.44
2022-10-07T10:31:11.726Z,14.11
2022-10-07T10:32:11.645Z,14.44
2022-10-07T10:33:11.640Z,14.89
2022-10-07T10:34:11.649Z,15.28
2022-10-07T10:35:11.645Z,15.89
2022-10-07T10:36:11.655Z,15.61
2022-10-07T10:37:14.497Z,16.39
2022-10-07T10:38:11.645Z,16.89
2022-10-07T10:39:11.649Z,17
2022-10-07T10:40:11.650Z,17
2022-10-07T10:41:11.651Z,17.33
2022-10-07T10:42:11.656Z,17.5
2022-10-07T10:43:11.652Z,17.17
2022-10-07T10:44:11.651Z,17.17
2022-10-07T10:45:11.658Z,17.5
2022-10-07T10:46:11.724Z,17.5
2022-10-07T10:47:11.651Z,16.72
2022-10-07T10:48:11.659Z,16.22
2022-10-07T10:49:11.660Z,15.28
2022-10-07T10:50:11.662Z,15.61
2022-10-07T10:51:11.664Z,15.78
2022-10-07T10:52:13.543Z,15.61
2022-10-07T10:53:11.658Z,15.78
2022-10-07T10:54:11.663Z,16.06
2022-10-07T10:55:11.668Z,15.78
2022-10-07T10:56:11.666Z,15.61
2022-10-07T10:57:11.674Z,15.44
2022-10-07T10:58:11.671Z,15.61
2022-10-07T10:59:11.678Z,16.06
2022-10-07T11:00:11.672Z,16.06
2022-10-07T11:01:11.676Z,16.56
2022-10-07T11:02:11.769Z,16.89
2022-10-07T11:03:11.696Z,17
2022-10-07T11:04:11.671Z,17.67
2022-10-07T11:05:11.684Z,17.67
2022-10-07T11:06:11.671Z,17.5
2022-10-07T11:07:11.687Z,17
2022-10-07T11:08:11.691Z,16.22
2022-10-07T11:09:11.679Z,16.22
2022-10-07T11:10:11.681Z,16.06
2022-10-07T11:11:11.683Z,16.72
2022-10-07T11:12:11.684Z,16.39
2022-10-07T11:13:11.693Z,17.33
2022-10-07T11:14:11.685Z,18.28
2022-10-07T11:15:11.687Z,18.44
2022-10-07T11:16:11.725Z,18.61
2022-10-07T11:17:11.701Z,17.94
2022-10-07T11:18:11.711Z,17.83
2022-10-07T11:19:11.698Z,18.17
2022-10-07T11:20:11.692Z,19
2022-10-07T11:21:11.691Z,19.28
2022-10-07T11:22:11.701Z,19.56
2022-10-07T11:23:11.699Z,19.78
2022-10-07T11:24:11.699Z,19.06
2022-10-07T11:25:11.700Z,18.78
2022-10-07T11:26:11.700Z,18.17
2022-10-07T11:27:11.701Z,18.44
2022-10-07T11:28:11.760Z,18.61
2022-10-07T11:29:11.706Z,18.94
2022-10-07T11:30:11.704Z,19.44
2022-10-07T11:31:11.763Z,19.78
2022-10-07T11:32:11.717Z,19.44
2022-10-07T11:33:11.710Z,19.44
2022-10-07T11:34:11.893Z,19.94
2022-10-07T11:35:11.704Z,20.33
2022-10-07T11:36:11.715Z,20.22
2022-10-07T11:37:11.716Z,19.94
2022-10-07T11:38:11.716Z,19.44
2022-10-07T11:39:11.715Z,19.44
2022-10-07T11:40:11.711Z,19.06
2022-10-07T11:41:11.723Z,19.06
2022-10-07T11:42:11.720Z,19.28
2022-10-07T11:43:11.716Z,18.61
2022-10-07T11:44:11.729Z,18.28
2022-10-07T11:45:11.724Z,18.44
2022-10-07T11:46:12.065Z,18.44
2022-10-07T11:47:11.724Z,18.44
2022-10-07T11:48:11.729Z,18.61
2022-10-07T11:49:11.768Z,18.17
2022-10-07T11:50:11.762Z,18.28
2022-10-07T11:51:11.733Z,19.06
2022-10-07T11:52:11.744Z,19.94
2022-10-07T11:53:11.734Z,20.56
2022-10-07T11:54:11.736Z,19.94
2022-10-07T11:55:11.739Z,19.44
2022-10-07T11:56:11.726Z,19.06
2022-10-07T11:57:11.740Z,19.44
2022-10-07T11:58:11.737Z,18.94
2022-10-07T11:59:11.745Z,18.94
2022-10-07T12:00:11.737Z,18.61
2022-10-07T12:01:11.744Z,18.78
2022-10-07T12:02:14.713Z,19.44
2022-10-07T12:03:11.768Z,19.44
2022-10-07T12:04:11.750Z,19.44
2022-10-07T12:05:11.746Z,19.44
2022-10-07T12:06:11.784Z,19.56
2022-10-07T12:07:11.740Z,19.94
2022-10-07T12:08:11.745Z,19.56
2022-10-07T12:09:11.750Z,19.44
2022-10-07T12:10:11.750Z,19.5
2022-10-07T12:11:11.747Z,19.44
2022-10-07T12:12:11.758Z,19.61
2022-10-07T12:13:11.738Z,20.11
2022-10-07T12:14:11.752Z,19.89
2022-10-07T12:15:11.758Z,19.83
2022-10-07T12:16:11.817Z,19.83
2022-10-07T12:17:11.753Z,20.56
2022-10-07T12:18:11.756Z,20.56
2022-10-07T12:19:11.764Z,20.39
2022-10-07T12:20:11.772Z,20.11
2022-10-07T12:21:11.763Z,19.94
2022-10-07T12:22:11.774Z,20.56
2022-10-07T12:23:11.759Z,20.83
2022-10-07T12:24:11.758Z,21.22
2022-10-07T12:25:11.763Z,20.83
2022-10-07T12:26:11.768Z,20.39
2022-10-07T12:27:11.766Z,19.61
2022-10-07T12:28:11.806Z,19.11
2022-10-07T12:29:11.771Z,19.11
2022-10-07T12:30:11.774Z,19.33
2022-10-07T12:31:11.811Z,19.61
2022-10-07T12:32:11.776Z,19.94
2022-10-07T12:33:11.780Z,20.22
2022-10-07T12:34:11.790Z,20.56
2022-10-07T12:35:11.783Z,21.06
2022-10-07T12:36:11.785Z,21.56
2022-10-07T12:37:11.788Z,21.06
2022-10-07T12:38:11.804Z,21.06
2022-10-07T12:39:11.867Z,20.39
2022-10-07T12:40:11.793Z,19.83
2022-10-07T12:41:11.785Z,19.94
2022-10-07T12:42:11.792Z,19.83
2022-10-07T12:43:11.790Z,20.39
2022-10-07T12:44:11.792Z,20.56
2022-10-07T12:45:11.791Z,20.56
2022-10-07T12:46:11.838Z,21.06
2022-10-07T12:47:15.033Z,21.56
2022-10-07T12:48:11.796Z,21.39
2022-10-07T12:49:11.800Z,21.56
2022-10-07T12:50:11.797Z,21.06
2022-10-07T12:51:11.800Z,21.89
2022-10-07T12:52:11.797Z,20.83
2022-10-07T12:53:11.799Z,21.22
2022-10-07T12:54:11.860Z,21.06
2022-10-07T12:55:11.795Z,21.22
2022-10-07T12:56:11.803Z,21.06
2022-10-07T12:57:11.809Z,21.06
2022-10-07T12:58:11.801Z,20.39
2022-10-07T12:59:11.815Z,21.22
2022-10-07T13:00:11.811Z,20.72
2022-10-07T13:01:11.997Z,21.56
2022-10-07T13:02:11.901Z,21.06
2022-10-07T13:03:11.836Z,20.22
2022-10-07T13:04:11.812Z,20.11
2022-10-07T13:05:11.812Z,19.94
2022-10-07T13:06:11.815Z,20.72
2022-10-07T13:07:11.824Z,20.11
2022-10-07T13:08:11.814Z,19.61
2022-10-07T13:09:11.817Z,20.11
2022-10-07T13:10:11.851Z,20.39
2022-10-07T13:11:11.832Z,19.94